sensor_id;sensor_type;location;lat;lon;timestamp;temperature;humidity
13606;DHT22;6874;52.084;5.090;2022-08-19T00:00:24;20.30;82.60
13606;DHT22;6874;52.084;5.090;2022-08-19T00:02:50;20.30;82.50
13606;DHT22;6874;52.084;5.090;2022-08-19T00:05:17;20.30;82.50
13606;DHT22;6874;52.084;5.090;2022-08-19T00:07:43;20.30;82.60
13606;DHT22;6874;52.084;5.090;2022-08-19T00:10:11;20.30;82.50
13606;DHT22;6874;52.084;5.090;2022-08-19T00:12:37;20.20;82.60
13606;DHT22;6874;52.084;5.090;2022-08-19T00:15:06;20.20;82.70
13606;DHT22;6874;52.084;5.090;2022-08-19T00:17:31;20.20;82.70
13606;DHT22;6874;52.084;5.090;2022-08-19T00:19:57;20.20;82.70
13606;DHT22;6874;52.084;5.090;2022-08-19T00:22:23;20.10;82.50
13606;DHT22;6874;52.084;5.090;2022-08-19T00:24:48;20.10;82.60
13606;DHT22;6874;52.084;5.090;2022-08-19T00:27:14;20.10;82.50
13606;DHT22;6874;52.084;5.090;2022-08-19T00:29:40;20.10;82.40
13606;DHT22;6874;52.084;5.090;2022-08-19T00:32:06;20.10;82.50
13606;DHT22;6874;52.084;5.090;2022-08-19T00:34:32;20.10;82.70
13606;DHT22;6874;52.084;5.090;2022-08-19T00:36:58;20.00;82.60
13606;DHT22;6874;52.084;5.090;2022-08-19T00:39:23;20.00;82.80
13606;DHT22;6874;52.084;5.090;2022-08-19T00:41:50;20.00;82.60
13606;DHT22;6874;52.084;5.090;2022-08-19T00:46:46;19.90;82.50
13606;DHT22;6874;52.084;5.090;2022-08-19T00:49:16;19.90;82.50
13606;DHT22;6874;52.084;5.090;2022-08-19T00:51:47;19.90;83.00
13606;DHT22;6874;52.084;5.090;2022-08-19T00:54:15;19.90;83.10
13606;DHT22;6874;52.084;5.090;2022-08-19T00:56:42;19.90;83.10
13606;DHT22;6874;52.084;5.090;2022-08-19T00:59:09;19.80;83.00
13606;DHT22;6874;52.084;5.090;2022-08-19T01:01:36;19.80;83.00
13606;DHT22;6874;52.084;5.090;2022-08-19T01:04:02;19.80;83.00
13606;DHT22;6874;52.084;5.090;2022-08-19T01:06:28;19.80;83.00
13606;DHT22;6874;52.084;5.090;2022-08-19T01:08:57;19.80;83.00
13606;DHT22;6874;52.084;5.090;2022-08-19T01:11:23;19.80;82.70
13606;DHT22;6874;52.084;5.090;2022-08-19T01:13:50;19.70;82.70
13606;DHT22;6874;52.084;5.090;2022-08-19T01:16:18;19.70;82.80
13606;DHT22;6874;52.084;5.090;2022-08-19T01:18:45;19.60;82.90
13606;DHT22;6874;52.084;5.090;2022-08-19T01:21:31;19.70;82.80
13606;DHT22;6874;52.084;5.090;2022-08-19T01:23:58;19.60;82.80
13606;DHT22;6874;52.084;5.090;2022-08-19T01:26:25;19.60;82.80
13606;DHT22;6874;52.084;5.090;2022-08-19T01:28:55;19.60;82.70
13606;DHT22;6874;52.084;5.090;2022-08-19T01:31:25;19.50;82.60
13606;DHT22;6874;52.084;5.090;2022-08-19T01:33:52;19.50;82.90
13606;DHT22;6874;52.084;5.090;2022-08-19T01:36:33;19.50;82.60
13606;DHT22;6874;52.084;5.090;2022-08-19T01:39:00;19.50;82.90
13606;DHT22;6874;52.084;5.090;2022-08-19T01:41:26;19.50;82.60
13606;DHT22;6874;52.084;5.090;2022-08-19T01:43:52;19.50;83.00
13606;DHT22;6874;52.084;5.090;2022-08-19T01:46:19;19.50;82.80
13606;DHT22;6874;52.084;5.090;2022-08-19T01:48:46;19.40;82.80
13606;DHT22;6874;52.084;5.090;2022-08-19T01:51:12;19.40;82.60
13606;DHT22;6874;52.084;5.090;2022-08-19T01:53:38;19.40;82.90
13606;DHT22;6874;52.084;5.090;2022-08-19T01:56:05;19.40;83.00
13606;DHT22;6874;52.084;5.090;2022-08-19T01:58:38;19.30;82.40
13606;DHT22;6874;52.084;5.090;2022-08-19T02:01:05;19.30;82.80
13606;DHT22;6874;52.084;5.090;2022-08-19T02:03:31;19.30;83.00
13606;DHT22;6874;52.084;5.090;2022-08-19T02:06:01;19.30;83.10
13606;DHT22;6874;52.084;5.090;2022-08-19T02:08:29;19.30;82.60
13606;DHT22;6874;52.084;5.090;2022-08-19T02:10:55;19.30;82.90
13606;DHT22;6874;52.084;5.090;2022-08-19T02:13:24;19.20;82.90
13606;DHT22;6874;52.084;5.090;2022-08-19T02:15:50;19.20;82.50
13606;DHT22;6874;52.084;5.090;2022-08-19T02:18:16;19.20;82.90
13606;DHT22;6874;52.084;5.090;2022-08-19T02:20:43;19.20;83.20
13606;DHT22;6874;52.084;5.090;2022-08-19T02:23:11;19.20;83.10
13606;DHT22;6874;52.084;5.090;2022-08-19T02:25:37;19.20;83.00
13606;DHT22;6874;52.084;5.090;2022-08-19T02:28:03;19.10;83.00
13606;DHT22;6874;52.084;5.090;2022-08-19T02:30:29;19.10;83.10
13606;DHT22;6874;52.084;5.090;2022-08-19T02:32:54;19.10;82.90
13606;DHT22;6874;52.084;5.090;2022-08-19T02:35:20;19.20;82.90
13606;DHT22;6874;52.084;5.090;2022-08-19T02:37:46;19.10;82.90
13606;DHT22;6874;52.084;5.090;2022-08-19T02:40:31;19.00;82.90
13606;DHT22;6874;52.084;5.090;2022-08-19T02:43:02;19.00;82.70
13606;DHT22;6874;52.084;5.090;2022-08-19T02:45:33;19.00;83.00
13606;DHT22;6874;52.084;5.090;2022-08-19T02:47:59;19.00;83.20
13606;DHT22;6874;52.084;5.090;2022-08-19T02:50:25;19.00;83.00
13606;DHT22;6874;52.084;5.090;2022-08-19T02:52:51;18.90;83.20
13606;DHT22;6874;52.084;5.090;2022-08-19T02:55:16;18.90;83.20
13606;DHT22;6874;52.084;5.090;2022-08-19T02:57:42;18.90;83.40
13606;DHT22;6874;52.084;5.090;2022-08-19T03:00:08;18.90;83.30
13606;DHT22;6874;52.084;5.090;2022-08-19T03:02:37;18.90;83.60
13606;DHT22;6874;52.084;5.090;2022-08-19T03:05:04;18.90;83.60
13606;DHT22;6874;52.084;5.090;2022-08-19T03:07:30;18.90;83.30
13606;DHT22;6874;52.084;5.090;2022-08-19T03:09:56;18.80;83.40
13606;DHT22;6874;52.084;5.090;2022-08-19T03:12:21;18.80;83.70
13606;DHT22;6874;52.084;5.090;2022-08-19T03:14:47;18.80;83.70
13606;DHT22;6874;52.084;5.090;2022-08-19T03:17:13;18.80;83.30
13606;DHT22;6874;52.084;5.090;2022-08-19T03:19:39;18.80;83.40
13606;DHT22;6874;52.084;5.090;2022-08-19T03:22:04;18.70;83.60
13606;DHT22;6874;52.084;5.090;2022-08-19T03:24:31;18.70;83.40
13606;DHT22;6874;52.084;5.090;2022-08-19T03:26:57;18.70;83.60
13606;DHT22;6874;52.084;5.090;2022-08-19T03:29:27;18.70;83.50
13606;DHT22;6874;52.084;5.090;2022-08-19T03:31:53;18.70;83.70
13606;DHT22;6874;52.084;5.090;2022-08-19T03:34:26;18.60;83.50
13606;DHT22;6874;52.084;5.090;2022-08-19T03:36:52;18.60;83.30
13606;DHT22;6874;52.084;5.090;2022-08-19T03:39:19;18.60;83.70
13606;DHT22;6874;52.084;5.090;2022-08-19T03:41:46;18.60;83.10
13606;DHT22;6874;52.084;5.090;2022-08-19T03:44:13;18.60;83.80
13606;DHT22;6874;52.084;5.090;2022-08-19T03:46:39;18.60;83.70
13606;DHT22;6874;52.084;5.090;2022-08-19T03:49:04;18.60;83.60
13606;DHT22;6874;52.084;5.090;2022-08-19T03:51:36;18.50;83.60
13606;DHT22;6874;52.084;5.090;2022-08-19T03:54:04;18.50;83.70
13606;DHT22;6874;52.084;5.090;2022-08-19T03:56:31;18.50;83.60
13606;DHT22;6874;52.084;5.090;2022-08-19T03:58:58;18.60;83.70
13606;DHT22;6874;52.084;5.090;2022-08-19T04:01:26;18.50;83.70
13606;DHT22;6874;52.084;5.090;2022-08-19T04:03:55;18.50;83.90
13606;DHT22;6874;52.084;5.090;2022-08-19T04:06:27;18.50;83.60
13606;DHT22;6874;52.084;5.090;2022-08-19T04:08:55;18.40;83.40
13606;DHT22;6874;52.084;5.090;2022-08-19T04:11:24;18.40;83.70
13606;DHT22;6874;52.084;5.090;2022-08-19T04:13:51;18.40;83.90
13606;DHT22;6874;52.084;5.090;2022-08-19T04:16:19;18.40;83.70
13606;DHT22;6874;52.084;5.090;2022-08-19T04:18:46;18.40;83.60
13606;DHT22;6874;52.084;5.090;2022-08-19T04:21:17;18.40;83.50
13606;DHT22;6874;52.084;5.090;2022-08-19T04:23:44;18.40;83.40
13606;DHT22;6874;52.084;5.090;2022-08-19T04:26:22;18.30;83.30
13606;DHT22;6874;52.084;5.090;2022-08-19T04:28:48;18.30;83.30
13606;DHT22;6874;52.084;5.090;2022-08-19T04:31:21;18.30;83.50
13606;DHT22;6874;52.084;5.090;2022-08-19T04:33:47;18.30;83.30
13606;DHT22;6874;52.084;5.090;2022-08-19T04:36:21;18.30;83.40
13606;DHT22;6874;52.084;5.090;2022-08-19T04:38:52;18.30;83.40
13606;DHT22;6874;52.084;5.090;2022-08-19T04:41:18;18.20;83.60
13606;DHT22;6874;52.084;5.090;2022-08-19T04:44:03;18.20;83.30
13606;DHT22;6874;52.084;5.090;2022-08-19T04:46:29;18.20;83.30
13606;DHT22;6874;52.084;5.090;2022-08-19T04:48:58;18.20;83.40
13606;DHT22;6874;52.084;5.090;2022-08-19T04:51:23;18.20;83.60
13606;DHT22;6874;52.084;5.090;2022-08-19T04:53:49;18.20;83.30
13606;DHT22;6874;52.084;5.090;2022-08-19T04:56:16;18.20;83.80
13606;DHT22;6874;52.084;5.090;2022-08-19T04:58:44;18.20;83.40
13606;DHT22;6874;52.084;5.090;2022-08-19T05:01:18;18.20;83.50
13606;DHT22;6874;52.084;5.090;2022-08-19T05:03:44;18.10;83.60
13606;DHT22;6874;52.084;5.090;2022-08-19T05:06:12;18.10;83.30
13606;DHT22;6874;52.084;5.090;2022-08-19T05:08:40;18.20;83.70
13606;DHT22;6874;52.084;5.090;2022-08-19T05:11:18;18.10;83.50
13606;DHT22;6874;52.084;5.090;2022-08-19T05:13:46;18.20;83.80
13606;DHT22;6874;52.084;5.090;2022-08-19T05:16:15;18.10;84.00
13606;DHT22;6874;52.084;5.090;2022-08-19T05:18:42;18.10;83.90
13606;DHT22;6874;52.084;5.090;2022-08-19T05:21:26;18.10;84.90
13606;DHT22;6874;52.084;5.090;2022-08-19T05:24:12;18.10;84.40
13606;DHT22;6874;52.084;5.090;2022-08-19T05:26:40;18.10;84.00
13606;DHT22;6874;52.084;5.090;2022-08-19T05:29:06;18.10;84.40
13606;DHT22;6874;52.084;5.090;2022-08-19T05:31:33;18.10;85.10
13606;DHT22;6874;52.084;5.090;2022-08-19T05:33:59;18.10;84.50
13606;DHT22;6874;52.084;5.090;2022-08-19T05:36:26;18.20;84.80
13606;DHT22;6874;52.084;5.090;2022-08-19T05:38:52;18.20;85.00
13606;DHT22;6874;52.084;5.090;2022-08-19T05:41:19;18.20;84.60
13606;DHT22;6874;52.084;5.090;2022-08-19T05:43:45;18.20;85.20
13606;DHT22;6874;52.084;5.090;2022-08-19T05:46:17;18.20;85.10
13606;DHT22;6874;52.084;5.090;2022-08-19T05:48:44;18.20;85.40
13606;DHT22;6874;52.084;5.090;2022-08-19T05:51:09;18.30;86.50
13606;DHT22;6874;52.084;5.090;2022-08-19T05:53:35;18.20;85.30
13606;DHT22;6874;52.084;5.090;2022-08-19T05:56:06;18.20;85.40
13606;DHT22;6874;52.084;5.090;2022-08-19T05:58:33;18.30;85.90
13606;DHT22;6874;52.084;5.090;2022-08-19T06:00:59;18.30;86.20
13606;DHT22;6874;52.084;5.090;2022-08-19T06:03:30;18.30;86.60
13606;DHT22;6874;52.084;5.090;2022-08-19T06:05:56;18.30;86.70
13606;DHT22;6874;52.084;5.090;2022-08-19T06:08:21;18.30;87.00
13606;DHT22;6874;52.084;5.090;2022-08-19T06:10:47;18.30;86.80
13606;DHT22;6874;52.084;5.090;2022-08-19T06:13:13;18.40;86.80
13606;DHT22;6874;52.084;5.090;2022-08-19T06:15:38;18.40;86.80
13606;DHT22;6874;52.084;5.090;2022-08-19T06:18:04;18.40;87.00
13606;DHT22;6874;52.084;5.090;2022-08-19T06:20:29;18.40;87.10
13606;DHT22;6874;52.084;5.090;2022-08-19T06:22:55;18.40;87.10
13606;DHT22;6874;52.084;5.090;2022-08-19T06:25:21;18.50;87.50
13606;DHT22;6874;52.084;5.090;2022-08-19T06:27:46;18.50;87.60
13606;DHT22;6874;52.084;5.090;2022-08-19T06:30:12;18.50;87.70
13606;DHT22;6874;52.084;5.090;2022-08-19T06:32:38;18.50;87.60
13606;DHT22;6874;52.084;5.090;2022-08-19T06:35:04;18.50;87.80
13606;DHT22;6874;52.084;5.090;2022-08-19T06:37:30;18.50;88.00
13606;DHT22;6874;52.084;5.090;2022-08-19T06:39:56;18.60;88.10
13606;DHT22;6874;52.084;5.090;2022-08-19T06:42:21;18.60;87.90
13606;DHT22;6874;52.084;5.090;2022-08-19T06:44:47;18.60;88.00
13606;DHT22;6874;52.084;5.090;2022-08-19T06:47:19;18.60;88.00
13606;DHT22;6874;52.084;5.090;2022-08-19T06:49:45;18.70;88.10
13606;DHT22;6874;52.084;5.090;2022-08-19T06:52:11;18.60;87.60
13606;DHT22;6874;52.084;5.090;2022-08-19T06:54:37;18.70;87.50
13606;DHT22;6874;52.084;5.090;2022-08-19T06:57:04;18.70;87.50
13606;DHT22;6874;52.084;5.090;2022-08-19T06:59:31;18.70;87.70
13606;DHT22;6874;52.084;5.090;2022-08-19T07:02:00;18.70;87.60
13606;DHT22;6874;52.084;5.090;2022-08-19T07:04:28;18.80;87.70
13606;DHT22;6874;52.084;5.090;2022-08-19T07:06:59;18.80;87.60
13606;DHT22;6874;52.084;5.090;2022-08-19T07:09:26;18.80;88.00
13606;DHT22;6874;52.084;5.090;2022-08-19T07:11:53;18.80;88.00
13606;DHT22;6874;52.084;5.090;2022-08-19T07:14:22;18.90;88.00
13606;DHT22;6874;52.084;5.090;2022-08-19T07:16:50;18.80;88.10
13606;DHT22;6874;52.084;5.090;2022-08-19T07:19:17;18.90;88.30
13606;DHT22;6874;52.084;5.090;2022-08-19T07:21:44;18.90;88.80
13606;DHT22;6874;52.084;5.090;2022-08-19T07:24:11;18.90;88.30
13606;DHT22;6874;52.084;5.090;2022-08-19T07:26:39;19.00;88.70
13606;DHT22;6874;52.084;5.090;2022-08-19T07:29:07;19.00;88.50
13606;DHT22;6874;52.084;5.090;2022-08-19T07:31:32;19.00;88.50
13606;DHT22;6874;52.084;5.090;2022-08-19T07:34:03;19.00;88.50
13606;DHT22;6874;52.084;5.090;2022-08-19T07:36:33;19.10;88.70
13606;DHT22;6874;52.084;5.090;2022-08-19T07:39:03;19.10;89.10
13606;DHT22;6874;52.084;5.090;2022-08-19T07:41:29;19.10;88.90
13606;DHT22;6874;52.084;5.090;2022-08-19T07:44:00;19.20;88.90
13606;DHT22;6874;52.084;5.090;2022-08-19T07:46:32;19.20;89.20
13606;DHT22;6874;52.084;5.090;2022-08-19T07:48:58;19.20;89.10
13606;DHT22;6874;52.084;5.090;2022-08-19T07:51:24;19.20;89.20
13606;DHT22;6874;52.084;5.090;2022-08-19T07:53:49;19.30;89.50
13606;DHT22;6874;52.084;5.090;2022-08-19T07:56:20;19.30;90.00
13606;DHT22;6874;52.084;5.090;2022-08-19T07:58:48;19.30;89.30
13606;DHT22;6874;52.084;5.090;2022-08-19T08:01:20;19.30;89.80
13606;DHT22;6874;52.084;5.090;2022-08-19T08:03:46;19.40;90.00
13606;DHT22;6874;52.084;5.090;2022-08-19T08:06:31;19.40;89.80
13606;DHT22;6874;52.084;5.090;2022-08-19T08:09:18;19.50;89.90
13606;DHT22;6874;52.084;5.090;2022-08-19T08:11:58;19.50;89.80
13606;DHT22;6874;52.084;5.090;2022-08-19T08:14:28;19.50;90.00
13606;DHT22;6874;52.084;5.090;2022-08-19T08:16:55;19.60;90.10
13606;DHT22;6874;52.084;5.090;2022-08-19T08:19:23;19.60;90.60
13606;DHT22;6874;52.084;5.090;2022-08-19T08:21:50;19.70;90.60
13606;DHT22;6874;52.084;5.090;2022-08-19T08:24:16;19.70;90.60
13606;DHT22;6874;52.084;5.090;2022-08-19T08:26:43;19.70;90.50
13606;DHT22;6874;52.084;5.090;2022-08-19T08:29:10;19.80;90.50
13606;DHT22;6874;52.084;5.090;2022-08-19T08:31:37;19.80;90.40
13606;DHT22;6874;52.084;5.090;2022-08-19T08:34:03;19.90;90.50
13606;DHT22;6874;52.084;5.090;2022-08-19T08:36:29;19.90;90.40
13606;DHT22;6874;52.084;5.090;2022-08-19T08:38:58;20.00;90.40
13606;DHT22;6874;52.084;5.090;2022-08-19T08:41:49;20.10;91.00
13606;DHT22;6874;52.084;5.090;2022-08-19T08:44:21;20.10;90.30
13606;DHT22;6874;52.084;5.090;2022-08-19T08:46:55;20.20;90.60
13606;DHT22;6874;52.084;5.090;2022-08-19T08:49:37;20.30;90.70
13606;DHT22;6874;52.084;5.090;2022-08-19T08:55:13;20.40;90.60
13606;DHT22;6874;52.084;5.090;2022-08-19T09:00:33;20.50;90.60
13606;DHT22;6874;52.084;5.090;2022-08-19T09:02:59;20.60;90.60
13606;DHT22;6874;52.084;5.090;2022-08-19T09:05:52;20.70;90.60
13606;DHT22;6874;52.084;5.090;2022-08-19T09:14:35;20.80;90.70
13606;DHT22;6874;52.084;5.090;2022-08-19T09:17:03;20.90;92.20
13606;DHT22;6874;52.084;5.090;2022-08-19T09:19:34;21.00;91.40
13606;DHT22;6874;52.084;5.090;2022-08-19T09:21:59;21.00;91.50
13606;DHT22;6874;52.084;5.090;2022-08-19T09:24:26;21.10;91.20
13606;DHT22;6874;52.084;5.090;2022-08-19T09:26:51;21.20;91.40
13606;DHT22;6874;52.084;5.090;2022-08-19T09:29:17;21.20;90.90
13606;DHT22;6874;52.084;5.090;2022-08-19T09:31:42;21.30;90.80
13606;DHT22;6874;52.084;5.090;2022-08-19T09:34:08;21.30;91.20
13606;DHT22;6874;52.084;5.090;2022-08-19T09:36:33;21.40;91.70
13606;DHT22;6874;52.084;5.090;2022-08-19T09:39:03;21.40;90.90
13606;DHT22;6874;52.084;5.090;2022-08-19T09:41:29;21.50;91.10
13606;DHT22;6874;52.084;5.090;2022-08-19T09:43:55;21.60;90.90
13606;DHT22;6874;52.084;5.090;2022-08-19T09:46:23;21.60;90.90
13606;DHT22;6874;52.084;5.090;2022-08-19T09:48:50;21.70;91.10
13606;DHT22;6874;52.084;5.090;2022-08-19T09:51:20;21.70;91.00
13606;DHT22;6874;52.084;5.090;2022-08-19T09:53:47;21.80;90.80
13606;DHT22;6874;52.084;5.090;2022-08-19T09:56:16;21.80;90.80
13606;DHT22;6874;52.084;5.090;2022-08-19T09:58:42;21.80;90.70
13606;DHT22;6874;52.084;5.090;2022-08-19T10:01:08;21.90;91.10
13606;DHT22;6874;52.084;5.090;2022-08-19T10:03:35;22.00;90.70
13606;DHT22;6874;52.084;5.090;2022-08-19T10:06:03;22.00;90.70
13606;DHT22;6874;52.084;5.090;2022-08-19T10:08:35;22.00;91.30
13606;DHT22;6874;52.084;5.090;2022-08-19T10:11:02;22.10;91.00
13606;DHT22;6874;52.084;5.090;2022-08-19T10:13:33;22.20;91.40
13606;DHT22;6874;52.084;5.090;2022-08-19T10:16:09;22.30;91.60
13606;DHT22;6874;52.084;5.090;2022-08-19T10:18:35;22.40;91.50
13606;DHT22;6874;52.084;5.090;2022-08-19T10:21:11;22.50;91.50
13606;DHT22;6874;52.084;5.090;2022-08-19T10:23:38;22.60;91.60
13606;DHT22;6874;52.084;5.090;2022-08-19T10:26:06;22.80;91.50
13606;DHT22;6874;52.084;5.090;2022-08-19T10:28:36;22.90;91.80
13606;DHT22;6874;52.084;5.090;2022-08-19T10:31:13;23.00;91.10
13606;DHT22;6874;52.084;5.090;2022-08-19T10:33:40;23.10;91.00
13606;DHT22;6874;52.084;5.090;2022-08-19T10:36:09;23.20;90.80
13606;DHT22;6874;52.084;5.090;2022-08-19T10:38:36;23.20;90.60
13606;DHT22;6874;52.084;5.090;2022-08-19T10:41:12;23.30;90.40
13606;DHT22;6874;52.084;5.090;2022-08-19T10:43:39;23.30;90.30
13606;DHT22;6874;52.084;5.090;2022-08-19T10:46:10;23.40;90.30
13606;DHT22;6874;52.084;5.090;2022-08-19T10:48:36;23.40;90.50
13606;DHT22;6874;52.084;5.090;2022-08-19T10:51:03;23.50;90.60
13606;DHT22;6874;52.084;5.090;2022-08-19T10:53:48;23.60;90.70
13606;DHT22;6874;52.084;5.090;2022-08-19T10:56:14;23.70;90.70
13606;DHT22;6874;52.084;5.090;2022-08-19T10:58:59;23.80;90.30
13606;DHT22;6874;52.084;5.090;2022-08-19T11:01:26;23.90;90.10
13606;DHT22;6874;52.084;5.090;2022-08-19T11:03:52;23.90;89.80
13606;DHT22;6874;52.084;5.090;2022-08-19T11:06:18;23.90;89.20
13606;DHT22;6874;52.084;5.090;2022-08-19T11:08:45;24.00;89.10
13606;DHT22;6874;52.084;5.090;2022-08-19T11:11:11;24.00;89.10
13606;DHT22;6874;52.084;5.090;2022-08-19T11:13:41;24.00;88.60
13606;DHT22;6874;52.084;5.090;2022-08-19T11:16:10;24.00;88.20
13606;DHT22;6874;52.084;5.090;2022-08-19T11:18:43;24.00;88.20
13606;DHT22;6874;52.084;5.090;2022-08-19T11:21:15;23.90;87.60
13606;DHT22;6874;52.084;5.090;2022-08-19T11:23:47;24.00;88.40
13606;DHT22;6874;52.084;5.090;2022-08-19T11:26:14;24.00;88.20
13606;DHT22;6874;52.084;5.090;2022-08-19T11:28:40;24.00;88.60
13606;DHT22;6874;52.084;5.090;2022-08-19T11:31:14;23.90;88.10
13606;DHT22;6874;52.084;5.090;2022-08-19T11:33:40;24.00;88.80
13606;DHT22;6874;52.084;5.090;2022-08-19T11:36:06;23.90;89.30
13606;DHT22;6874;52.084;5.090;2022-08-19T11:38:33;24.00;89.30
13606;DHT22;6874;52.084;5.090;2022-08-19T11:41:04;24.00;89.10
13606;DHT22;6874;52.084;5.090;2022-08-19T11:43:30;24.00;89.30
13606;DHT22;6874;52.084;5.090;2022-08-19T11:45:57;24.10;89.40
13606;DHT22;6874;52.084;5.090;2022-08-19T11:48:23;24.10;89.50
13606;DHT22;6874;52.084;5.090;2022-08-19T11:50:50;24.10;89.40
13606;DHT22;6874;52.084;5.090;2022-08-19T11:53:18;24.10;89.30
13606;DHT22;6874;52.084;5.090;2022-08-19T11:55:46;24.10;89.40
13606;DHT22;6874;52.084;5.090;2022-08-19T11:58:13;24.10;89.10
13606;DHT22;6874;52.084;5.090;2022-08-19T12:00:39;24.30;89.60
13606;DHT22;6874;52.084;5.090;2022-08-19T12:03:05;24.20;89.50
13606;DHT22;6874;52.084;5.090;2022-08-19T12:05:31;24.20;89.60
13606;DHT22;6874;52.084;5.090;2022-08-19T12:07:56;24.30;89.60
13606;DHT22;6874;52.084;5.090;2022-08-19T12:10:23;24.30;89.40
13606;DHT22;6874;52.084;5.090;2022-08-19T12:12:48;24.30;89.20
13606;DHT22;6874;52.084;5.090;2022-08-19T12:15:14;24.30;89.40
13606;DHT22;6874;52.084;5.090;2022-08-19T12:17:40;24.30;89.20
13606;DHT22;6874;52.084;5.090;2022-08-19T12:20:08;24.40;89.50
13606;DHT22;6874;52.084;5.090;2022-08-19T12:22:36;24.40;89.50
13606;DHT22;6874;52.084;5.090;2022-08-19T12:25:03;24.40;90.00
13606;DHT22;6874;52.084;5.090;2022-08-19T12:27:29;24.40;89.60
13606;DHT22;6874;52.084;5.090;2022-08-19T12:29:54;24.50;89.50
13606;DHT22;6874;52.084;5.090;2022-08-19T12:32:20;24.50;89.40
13606;DHT22;6874;52.084;5.090;2022-08-19T12:34:46;24.50;89.20
13606;DHT22;6874;52.084;5.090;2022-08-19T12:37:13;24.50;89.10
13606;DHT22;6874;52.084;5.090;2022-08-19T12:39:41;24.60;89.20
13606;DHT22;6874;52.084;5.090;2022-08-19T12:42:07;24.60;89.10
13606;DHT22;6874;52.084;5.090;2022-08-19T12:44:34;24.60;88.90
13606;DHT22;6874;52.084;5.090;2022-08-19T12:47:00;24.60;88.30
13606;DHT22;6874;52.084;5.090;2022-08-19T12:49:27;24.60;88.30
13606;DHT22;6874;52.084;5.090;2022-08-19T12:51:53;24.60;88.30
13606;DHT22;6874;52.084;5.090;2022-08-19T12:54:19;24.60;87.90
13606;DHT22;6874;52.084;5.090;2022-08-19T12:56:45;24.60;88.00
13606;DHT22;6874;52.084;5.090;2022-08-19T12:59:11;24.60;87.70
13606;DHT22;6874;52.084;5.090;2022-08-19T13:01:37;24.60;88.10
13606;DHT22;6874;52.084;5.090;2022-08-19T13:04:03;24.60;88.00
13606;DHT22;6874;52.084;5.090;2022-08-19T13:06:29;24.60;88.30
13606;DHT22;6874;52.084;5.090;2022-08-19T13:08:55;24.70;88.40
13606;DHT22;6874;52.084;5.090;2022-08-19T13:11:21;24.70;88.40
13606;DHT22;6874;52.084;5.090;2022-08-19T13:13:50;24.70;88.40
13606;DHT22;6874;52.084;5.090;2022-08-19T13:16:16;24.70;88.40
13606;DHT22;6874;52.084;5.090;2022-08-19T13:18:44;24.70;87.60
13606;DHT22;6874;52.084;5.090;2022-08-19T13:21:10;24.70;87.50
13606;DHT22;6874;52.084;5.090;2022-08-19T13:23:39;24.80;87.60
13606;DHT22;6874;52.084;5.090;2022-08-19T13:26:07;24.70;87.40
13606;DHT22;6874;52.084;5.090;2022-08-19T13:28:34;24.70;87.40
13606;DHT22;6874;52.084;5.090;2022-08-19T13:31:21;24.70;87.40
13606;DHT22;6874;52.084;5.090;2022-08-19T13:34:06;24.70;86.90
13606;DHT22;6874;52.084;5.090;2022-08-19T13:36:33;24.60;87.70
13606;DHT22;6874;52.084;5.090;2022-08-19T13:38:59;24.60;88.00
13606;DHT22;6874;52.084;5.090;2022-08-19T13:41:25;24.70;88.40
13606;DHT22;6874;52.084;5.090;2022-08-19T13:43:52;24.60;88.30
13606;DHT22;6874;52.084;5.090;2022-08-19T13:46:18;24.60;88.30
13606;DHT22;6874;52.084;5.090;2022-08-19T13:48:45;24.60;88.30
13606;DHT22;6874;52.084;5.090;2022-08-19T13:51:11;24.60;88.70
13606;DHT22;6874;52.084;5.090;2022-08-19T13:53:37;24.60;88.60
13606;DHT22;6874;52.084;5.090;2022-08-19T13:56:08;24.60;88.70
13606;DHT22;6874;52.084;5.090;2022-08-19T13:58:34;24.60;88.90
13606;DHT22;6874;52.084;5.090;2022-08-19T14:01:00;24.60;88.90
13606;DHT22;6874;52.084;5.090;2022-08-19T14:03:26;24.60;89.10
13606;DHT22;6874;52.084;5.090;2022-08-19T14:05:52;24.60;89.00
13606;DHT22;6874;52.084;5.090;2022-08-19T14:08:18;24.60;89.20
13606;DHT22;6874;52.084;5.090;2022-08-19T14:10:44;24.60;89.10
13606;DHT22;6874;52.084;5.090;2022-08-19T14:13:13;24.60;89.00
13606;DHT22;6874;52.084;5.090;2022-08-19T14:15:40;24.60;89.00
13606;DHT22;6874;52.084;5.090;2022-08-19T14:18:05;24.60;88.90
13606;DHT22;6874;52.084;5.090;2022-08-19T14:20:34;24.60;89.10
13606;DHT22;6874;52.084;5.090;2022-08-19T14:23:00;24.50;88.90
13606;DHT22;6874;52.084;5.090;2022-08-19T14:25:27;24.50;89.30
13606;DHT22;6874;52.084;5.090;2022-08-19T14:27:55;24.50;89.40
13606;DHT22;6874;52.084;5.090;2022-08-19T14:30:29;24.60;89.30
13606;DHT22;6874;52.084;5.090;2022-08-19T14:32:57;24.50;89.40
13606;DHT22;6874;52.084;5.090;2022-08-19T14:35:24;24.50;89.60
13606;DHT22;6874;52.084;5.090;2022-08-19T14:37:51;24.50;89.70
13606;DHT22;6874;52.084;5.090;2022-08-19T14:40:20;24.50;89.60
13606;DHT22;6874;52.084;5.090;2022-08-19T14:42:59;24.50;89.60
13606;DHT22;6874;52.084;5.090;2022-08-19T14:45:30;24.50;89.70
13606;DHT22;6874;52.084;5.090;2022-08-19T14:47:56;24.50;89.70
13606;DHT22;6874;52.084;5.090;2022-08-19T14:50:23;24.50;89.60
13606;DHT22;6874;52.084;5.090;2022-08-19T14:52:49;24.60;89.80
13606;DHT22;6874;52.084;5.090;2022-08-19T14:55:17;24.60;89.70
13606;DHT22;6874;52.084;5.090;2022-08-19T14:57:43;24.60;90.00
13606;DHT22;6874;52.084;5.090;2022-08-19T15:00:10;24.60;90.00
13606;DHT22;6874;52.084;5.090;2022-08-19T15:02:39;24.60;89.80
13606;DHT22;6874;52.084;5.090;2022-08-19T15:05:05;24.70;90.20
13606;DHT22;6874;52.084;5.090;2022-08-19T15:07:31;24.60;89.60
13606;DHT22;6874;52.084;5.090;2022-08-19T15:09:57;24.60;89.50
13606;DHT22;6874;52.084;5.090;2022-08-19T15:12:23;24.60;89.50
13606;DHT22;6874;52.084;5.090;2022-08-19T15:14:49;24.60;89.40
13606;DHT22;6874;52.084;5.090;2022-08-19T15:17:18;24.60;89.50
13606;DHT22;6874;52.084;5.090;2022-08-19T15:19:44;24.60;89.50
13606;DHT22;6874;52.084;5.090;2022-08-19T15:22:10;24.60;89.60
13606;DHT22;6874;52.084;5.090;2022-08-19T15:24:35;24.60;89.60
13606;DHT22;6874;52.084;5.090;2022-08-19T15:27:03;24.60;89.50
13606;DHT22;6874;52.084;5.090;2022-08-19T15:29:30;24.60;89.60
13606;DHT22;6874;52.084;5.090;2022-08-19T15:31:56;24.60;90.00
13606;DHT22;6874;52.084;5.090;2022-08-19T15:34:24;24.60;90.00
13606;DHT22;6874;52.084;5.090;2022-08-19T15:36:52;24.60;90.00
13606;DHT22;6874;52.084;5.090;2022-08-19T15:39:18;24.60;90.00
13606;DHT22;6874;52.084;5.090;2022-08-19T15:41:45;24.60;90.00
13606;DHT22;6874;52.084;5.090;2022-08-19T15:44:13;24.60;90.10
13606;DHT22;6874;52.084;5.090;2022-08-19T15:46:40;24.60;90.10
13606;DHT22;6874;52.084;5.090;2022-08-19T15:49:07;24.60;90.10
13606;DHT22;6874;52.084;5.090;2022-08-19T15:51:34;24.60;90.00
13606;DHT22;6874;52.084;5.090;2022-08-19T15:54:05;24.60;90.00
13606;DHT22;6874;52.084;5.090;2022-08-19T15:56:31;24.60;90.10
13606;DHT22;6874;52.084;5.090;2022-08-19T15:59:16;24.60;90.20
13606;DHT22;6874;52.084;5.090;2022-08-19T16:02:00;24.60;90.20
13606;DHT22;6874;52.084;5.090;2022-08-19T16:04:45;24.70;90.10